createdAt,value
2022-09-29T00:01:09.424Z,99.90
2022-09-29T00:06:16.463Z,99.90
2022-09-29T00:11:20.398Z,99.90
2022-09-29T00:16:24.040Z,99.90
2022-09-29T00:21:29.088Z,99.90
2022-09-29T00:26:32.825Z,99.90
2022-09-29T00:31:36.613Z,99.90
2022-09-29T00:36:41.670Z,99.90
2022-09-29T00:41:45.334Z,99.90
2022-09-29T00:46:53.459Z,99.90
2022-09-29T00:52:03.082Z,99.90
2022-09-29T00:57:10.094Z,99.90
2022-09-29T01:02:14.134Z,99.90
2022-09-29T01:07:19.889Z,99.90
2022-09-29T01:12:24.744Z,99.90
2022-09-29T01:17:28.946Z,99.90
2022-09-29T01:23:12.939Z,99.90
2022-09-29T01:28:35.754Z,99.90
2022-09-29T01:33:49.079Z,99.90
2022-09-29T01:39:00.036Z,99.90
2022-09-29T01:44:10.069Z,99.90
2022-09-29T01:49:15.969Z,99.90
2022-09-29T01:54:23.034Z,99.90
2022-09-29T01:59:29.105Z,99.90
2022-09-29T02:04:38.409Z,99.90
2022-09-29T02:09:48.746Z,99.90
2022-09-29T02:14:54.691Z,99.90
2022-09-29T02:20:00.093Z,99.90
2022-09-29T02:25:04.800Z,99.90
2022-09-29T02:30:09.636Z,99.90
2022-09-29T02:35:16.509Z,99.90
2022-09-29T02:40:31.011Z,99.90
2022-09-29T02:45:43.859Z,99.90
2022-09-29T02:50:57.657Z,99.90
2022-09-29T02:56:08.881Z,99.90
2022-09-29T03:01:12.756Z,99.90
2022-09-29T03:06:19.817Z,99.90
2022-09-29T03:11:23.541Z,99.90
2022-09-29T03:16:27.285Z,99.90
2022-09-29T03:21:32.456Z,99.90
2022-09-29T03:26:36.121Z,99.90
2022-09-29T03:31:41.799Z,99.90
2022-09-29T03:36:46.986Z,99.90
2022-09-29T03:41:50.726Z,99.90
2022-09-29T03:46:54.496Z,99.90
2022-09-29T03:51:59.521Z,99.90
2022-09-29T03:57:03.225Z,99.90
2022-09-29T04:02:08.966Z,99.90
2022-09-29T04:07:14.123Z,99.90
2022-09-29T04:12:17.753Z,99.90
2022-09-29T04:17:21.905Z,99.90
2022-09-29T04:22:27.054Z,99.90
2022-09-29T04:27:30.714Z,99.90
2022-09-29T04:32:34.808Z,99.90
2022-09-29T04:37:39.883Z,99.90
2022-09-29T04:42:43.521Z,99.90
2022-09-29T04:47:47.156Z,99.90
2022-09-29T04:52:52.489Z,99.90
2022-09-29T04:57:56.102Z,99.90
2022-09-29T05:03:00.344Z,99.90
2022-09-29T05:08:06.975Z,99.90
2022-09-29T05:13:10.677Z,99.90
2022-09-29T05:18:14.556Z,99.90
2022-09-29T05:23:19.765Z,99.90
2022-09-29T05:28:23.405Z,99.90
2022-09-29T05:33:27.288Z,99.90
2022-09-29T05:38:32.413Z,99.90
2022-09-29T05:43:36.337Z,99.90
2022-09-29T05:48:40.026Z,99.90
2022-09-29T05:53:45.010Z,99.90
2022-09-29T05:58:49.098Z,99.90
2022-09-29T06:03:54.896Z,99.90
2022-09-29T06:09:00.609Z,99.90
2022-09-29T06:14:04.612Z,99.90
2022-09-29T06:19:08.269Z,99.90
2022-09-29T06:24:13.521Z,99.90
2022-09-29T06:29:17.330Z,99.90
2022-09-29T06:34:21.273Z,99.90
2022-09-29T06:39:26.670Z,99.90
2022-09-29T06:44:31.310Z,99.90
2022-09-29T06:49:35.018Z,99.90
2022-09-29T06:54:40.136Z,99.90
2022-09-29T06:59:43.823Z,99.90
2022-09-29T07:04:48.842Z,99.90
2022-09-29T07:09:53.891Z,99.90
2022-09-29T07:14:57.510Z,99.90
2022-09-29T07:20:01.249Z,99.90
2022-09-29T07:25:07.149Z,99.90
2022-09-29T07:30:12.342Z,99.90
2022-09-29T07:35:16.060Z,99.90
2022-09-29T07:40:21.845Z,99.90
2022-09-29T07:45:25.768Z,99.90
2022-09-29T07:50:29.471Z,99.90
2022-09-29T07:55:34.519Z,99.90
2022-09-29T08:00:38.298Z,99.90
2022-09-29T08:05:42.822Z,99.90
2022-09-29T08:10:53.709Z,99.90
2022-09-29T08:16:00.341Z,99.90
2022-09-29T08:21:05.383Z,99.90
2022-09-29T08:26:15.955Z,99.90
2022-09-29T08:31:21.563Z,99.90
2022-09-29T08:36:25.636Z,99.90
2022-09-29T08:41:44.602Z,99.90
2022-09-29T08:47:04.293Z,99.90
2022-09-29T08:52:17.377Z,99.90
2022-09-29T08:57:22.784Z,99.90
2022-09-29T09:03:00.359Z,99.90
2022-09-29T09:08:10.206Z,99.90
2022-09-29T09:13:32.843Z,99.90
2022-09-29T09:19:06.740Z,99.90
2022-09-29T09:24:22.735Z,99.90
2022-09-29T09:29:37.655Z,99.90
2022-09-29T09:34:47.263Z,99.90
2022-09-29T09:39:58.193Z,99.30
2022-09-29T09:45:11.443Z,97.70
2022-09-29T09:50:17.644Z,96.30
2022-09-29T09:55:24.973Z,96.20
2022-09-29T10:00:35.113Z,94.80
2022-09-29T10:05:41.938Z,94.10
2022-09-29T10:10:57.537Z,93.40
2022-09-29T10:16:13.634Z,91.90
2022-09-29T10:21:24.452Z,91.60
2022-09-29T10:26:30.918Z,92.20
2022-09-29T10:31:37.637Z,91.70
2022-09-29T10:36:51.095Z,90.80
2022-09-29T10:41:54.893Z,87.70
2022-09-29T10:47:00.590Z,89.50
2022-09-29T10:52:06.795Z,89.90
2022-09-29T10:57:15.999Z,90.10
2022-09-29T11:02:26.067Z,90.90
2022-09-29T11:07:31.740Z,93.10
2022-09-29T11:12:39.158Z,92.20
2022-09-29T11:17:51.809Z,92.60
2022-09-29T11:23:06.208Z,93.70
2022-09-29T11:28:34.594Z,95.40
2022-09-29T11:33:51.449Z,96.40
2022-09-29T11:39:04.864Z,95.50
2022-09-29T11:44:28.728Z,94.50
2022-09-29T11:50:02.216Z,93.80
2022-09-29T11:55:20.906Z,92.80
2022-09-29T12:00:38.181Z,91.30
2022-09-29T12:05:53.798Z,86.80
2022-09-29T12:11:23.665Z,88.70
2022-09-29T12:16:33.866Z,90.80
2022-09-29T12:21:41.962Z,92.10
2022-09-29T12:26:50.218Z,92.80
2022-09-29T12:31:57.969Z,92.60
2022-09-29T12:37:07.762Z,92.90
2022-09-29T12:42:26.871Z,91.00
2022-09-29T12:47:44.142Z,92.20
2022-09-29T12:52:53.932Z,92.10
2022-09-29T12:58:04.755Z,92.90
2022-09-29T13:03:25.321Z,92.90
2022-09-29T13:08:58.222Z,92.90
2022-09-29T13:14:37.215Z,92.70
2022-09-29T13:20:16.887Z,92.60
2022-09-29T13:25:26.786Z,92.70
2022-09-29T13:30:36.360Z,93.10
2022-09-29T13:35:42.577Z,93.30
2022-09-29T13:41:12.371Z,93.80
2022-09-29T13:46:38.881Z,94.10
2022-09-29T13:51:52.857Z,94.00
2022-09-29T13:57:27.553Z,94.10
2022-09-29T14:02:36.832Z,94.30
2022-09-29T14:07:44.155Z,94.60
2022-09-29T14:12:54.528Z,94.90
2022-09-29T14:18:04.404Z,95.20
2022-09-29T14:23:11.086Z,95.50
2022-09-29T14:28:18.573Z,95.60
2022-09-29T14:33:28.865Z,95.60
2022-09-29T14:38:35.770Z,95.80
2022-09-29T14:43:42.311Z,95.90
2022-09-29T14:49:18.965Z,95.90
2022-09-29T14:54:37.199Z,96.30
2022-09-29T14:59:58.502Z,96.60
2022-09-29T15:05:16.207Z,96.80
2022-09-29T15:10:24.352Z,96.80
2022-09-29T15:15:37.404Z,96.80
2022-09-29T15:20:56.420Z,96.80
2022-09-29T15:26:01.220Z,96.80
2022-09-29T15:31:09.199Z,96.70
2022-09-29T15:36:22.200Z,96.70
2022-09-29T15:41:29.239Z,96.50
2022-09-29T15:46:40.479Z,96.70
2022-09-29T15:51:57.140Z,96.70
2022-09-29T15:57:18.692Z,96.60
2022-09-29T16:02:30.428Z,96.60
2022-09-29T16:07:38.562Z,96.90
2022-09-29T16:12:57.186Z,97.00
2022-09-29T16:18:07.382Z,97.30
2022-09-29T16:23:22.277Z,97.40
2022-09-29T16:28:29.524Z,97.70
2022-09-29T16:33:35.664Z,97.80
2022-09-29T16:38:42.763Z,97.70
2022-09-29T16:43:46.639Z,97.80
2022-09-29T16:48:55.843Z,98.10
2022-09-29T16:54:01.317Z,98.20
2022-09-29T16:59:12.538Z,98.30
2022-09-29T17:04:16.520Z,98.50
2022-09-29T17:09:29.293Z,98.60
2022-09-29T17:14:33.335Z,98.80
2022-09-29T17:19:37.313Z,98.90
2022-09-29T17:24:42.605Z,99.10
2022-09-29T17:29:46.412Z,99.20
2022-09-29T17:34:50.189Z,99.40
2022-09-29T17:39:57.068Z,99.60
2022-09-29T17:45:01.876Z,99.60
2022-09-29T17:50:21.628Z,99.80
2022-09-29T17:55:27.734Z,99.90
2022-09-29T18:00:38.413Z,99.90
2022-09-29T18:05:44.467Z,99.90
2022-09-29T18:10:53.522Z,99.90
2022-09-29T18:15:59.275Z,99.90
2022-09-29T18:21:03.805Z,99.90
2022-09-29T18:26:09.578Z,99.90
2022-09-29T18:31:20.015Z,99.90
2022-09-29T18:36:23.872Z,99.90
2022-09-29T18:41:29.000Z,99.90
2022-09-29T18:46:33.564Z,99.90
2022-09-29T18:51:39.056Z,99.90
2022-09-29T18:56:44.289Z,99.90
2022-09-29T19:01:48.194Z,99.90
2022-09-29T19:06:52.147Z,99.90
2022-09-29T19:11:57.235Z,99.90
2022-09-29T19:17:01.131Z,99.90
2022-09-29T19:22:05.217Z,99.90
2022-09-29T19:27:10.376Z,99.90
2022-09-29T19:32:14.674Z,99.90
2022-09-29T19:37:18.689Z,99.90
2022-09-29T19:42:24.152Z,99.90
2022-09-29T19:47:27.828Z,99.90
2022-09-29T19:52:32.861Z,99.90
2022-09-29T19:57:41.089Z,99.90
2022-09-29T20:02:45.509Z,99.90
2022-09-29T20:07:49.910Z,99.90
2022-09-29T20:12:57.050Z,99.90
2022-09-29T20:18:00.592Z,99.90
2022-09-29T20:23:04.281Z,99.90
2022-09-29T20:28:14.369Z,99.90
2022-09-29T20:33:19.078Z,99.90
2022-09-29T20:38:22.891Z,99.90
2022-09-29T20:43:28.025Z,99.90
2022-09-29T20:48:31.939Z,99.90
2022-09-29T20:53:40.591Z,99.90
2022-09-29T20:58:47.418Z,99.90
2022-09-29T21:03:52.251Z,99.90
2022-09-29T21:08:56.788Z,99.90
2022-09-29T21:14:01.951Z,99.90
2022-09-29T21:19:05.775Z,99.90
2022-09-29T21:24:10.087Z,99.90
2022-09-29T21:29:18.428Z,99.90
2022-09-29T21:34:22.277Z,99.90
2022-09-29T21:39:26.078Z,99.90
2022-09-29T21:44:31.178Z,99.90
2022-09-29T21:49:34.869Z,99.90
2022-09-29T21:54:38.787Z,99.90
2022-09-29T21:59:46.126Z,99.90
2022-09-29T22:04:50.029Z,99.90
2022-09-29T22:09:53.676Z,99.90
2022-09-29T22:14:58.716Z,99.90
2022-09-29T22:20:02.924Z,99.90
2022-09-29T22:25:07.483Z,99.90
2022-09-29T22:30:13.110Z,99.90
2022-09-29T22:35:17.074Z,99.90
2022-09-29T22:40:20.823Z,99.90
2022-09-29T22:45:25.965Z,99.90
2022-09-29T22:50:32.303Z,99.90
2022-09-29T22:55:36.079Z,99.90
2022-09-29T23:00:41.996Z,99.90
2022-09-29T23:05:45.725Z,99.90
2022-09-29T23:10:49.466Z,99.90
2022-09-29T23:15:54.774Z,99.90
2022-09-29T23:21:06.795Z,99.90
2022-09-29T23:26:10.680Z,99.90
2022-09-29T23:31:18.572Z,99.90
2022-09-29T23:36:27.510Z,99.90
2022-09-29T23:41:32.753Z,99.90
2022-09-29T23:46:39.867Z,99.90
2022-09-29T23:51:44.380Z,99.90
2022-09-29T23:56:49.433Z,99.90
